createdAt,value
2023-05-12T00:00:04.598Z,24.45
2023-05-12T00:02:41.888Z,19.10
2023-05-12T00:05:10.730Z,20.70
2023-05-12T00:07:38.955Z,20.20
2023-05-12T00:10:09.605Z,16.77
2023-05-12T00:12:38.199Z,26.27
2023-05-12T00:15:07.887Z,13.63
2023-05-12T00:17:36.360Z,10.13
2023-05-12T00:20:05.388Z,15.63
2023-05-12T00:22:34.790Z,10.70
2023-05-12T00:25:03.010Z,16.85
2023-05-12T00:27:33.673Z,15.57
2023-05-12T00:30:02.085Z,14.18
2023-05-12T00:32:34.063Z,12.48
2023-05-12T00:35:02.695Z,11.25
2023-05-12T00:37:32.740Z,15.05
2023-05-12T00:40:01.167Z,12.18
2023-05-12T00:42:30.755Z,16.15
2023-05-12T00:45:00.770Z,18.85
2023-05-12T00:47:30.411Z,19.35
2023-05-12T00:49:58.858Z,29.15
2023-05-12T00:52:28.053Z,21.88
2023-05-12T00:54:56.361Z,13.57
2023-05-12T00:57:27.932Z,19.05
2023-05-12T00:59:57.153Z,16.92
2023-05-12T01:02:27.450Z,12.77
2023-05-12T01:04:56.676Z,10.00
2023-05-12T01:07:26.832Z,9.75
2023-05-12T01:09:56.685Z,12.50
2023-05-12T01:12:26.277Z,11.85
2023-05-12T01:14:57.135Z,7.63
2023-05-12T01:17:33.751Z,10.32
2023-05-12T01:20:04.972Z,10.30
2023-05-12T01:22:35.092Z,8.20
2023-05-12T01:25:07.707Z,19.45
2023-05-12T01:27:40.921Z,9.90
2023-05-12T01:30:12.875Z,8.80
2023-05-12T01:32:41.827Z,10.85
2023-05-12T01:35:10.436Z,12.65
2023-05-12T01:37:42.482Z,12.38
2023-05-12T01:40:11.278Z,9.85
2023-05-12T01:42:43.604Z,8.27
2023-05-12T01:45:13.616Z,11.98
2023-05-12T01:47:42.089Z,8.88
2023-05-12T01:50:12.078Z,8.50
2023-05-12T01:52:41.446Z,9.60
2023-05-12T01:55:13.493Z,7.28
2023-05-12T01:57:50.450Z,7.43
2023-05-12T02:00:19.320Z,11.13
2023-05-12T02:02:49.788Z,10.88
2023-05-12T02:05:18.719Z,10.93
2023-05-12T02:07:50.281Z,9.73
2023-05-12T02:10:19.452Z,5.72
2023-05-12T02:12:51.402Z,7.70
2023-05-12T02:15:19.940Z,6.95
2023-05-12T02:17:53.936Z,32.15
2023-05-12T02:20:23.311Z,7.50
2023-05-12T02:22:51.530Z,9.88
2023-05-12T02:25:20.378Z,8.10
2023-05-12T02:27:49.477Z,10.90
2023-05-12T02:30:21.202Z,9.35
2023-05-12T02:32:49.746Z,11.40
2023-05-12T02:35:18.424Z,8.88
2023-05-12T02:37:46.761Z,7.43
2023-05-12T02:40:16.071Z,9.52
2023-05-12T02:42:45.580Z,8.40
2023-05-12T02:45:14.288Z,10.48
2023-05-12T02:47:44.141Z,11.43
2023-05-12T02:50:12.585Z,8.57
2023-05-12T02:52:41.145Z,9.30
2023-05-12T02:55:10.340Z,7.80
2023-05-12T02:57:38.636Z,11.30
2023-05-12T03:00:10.713Z,9.38
2023-05-12T03:02:41.142Z,9.68
2023-05-12T03:05:11.327Z,6.78
2023-05-12T03:07:39.976Z,6.10
2023-05-12T03:10:10.513Z,4.70
2023-05-12T03:12:38.777Z,14.13
2023-05-12T03:15:07.956Z,6.25
2023-05-12T03:17:36.667Z,11.18
2023-05-12T03:20:06.082Z,7.60
2023-05-12T03:22:37.991Z,6.43
2023-05-12T03:25:08.352Z,6.30
2023-05-12T03:27:37.159Z,12.80
2023-05-12T03:30:06.234Z,8.02
2023-05-12T03:32:39.455Z,10.95
2023-05-12T03:35:11.116Z,12.65
2023-05-12T03:37:41.036Z,7.93
2023-05-12T03:40:11.544Z,11.90
2023-05-12T03:42:39.815Z,9.73
2023-05-12T03:45:10.152Z,10.18
2023-05-12T03:47:40.563Z,6.25
2023-05-12T03:50:10.434Z,9.05
2023-05-12T03:52:41.386Z,10.88
2023-05-12T03:55:10.514Z,4.53
2023-05-12T03:57:38.914Z,6.53
2023-05-12T04:00:08.546Z,14.48
2023-05-12T04:02:46.461Z,12.63
2023-05-12T04:05:16.320Z,12.65
2023-05-12T04:07:46.034Z,10.90
2023-05-12T04:10:14.463Z,12.10
2023-05-12T04:12:42.740Z,10.38
2023-05-12T04:15:14.581Z,11.57
2023-05-12T04:17:43.242Z,8.45
2023-05-12T04:20:11.887Z,11.15
2023-05-12T04:22:40.318Z,10.90
2023-05-12T04:25:11.077Z,9.02
2023-05-12T04:27:40.624Z,10.20
2023-05-12T04:30:10.334Z,8.57
2023-05-12T04:32:40.945Z,8.05
2023-05-12T04:35:10.111Z,9.23
2023-05-12T04:37:38.509Z,11.98
2023-05-12T04:40:10.259Z,9.38
2023-05-12T04:42:38.809Z,11.27
2023-05-12T04:45:10.159Z,8.05
2023-05-12T04:47:38.687Z,13.45
2023-05-12T04:50:08.071Z,7.50
2023-05-12T04:52:36.651Z,6.80
2023-05-12T04:55:05.897Z,7.82
2023-05-12T04:57:35.673Z,6.43
2023-05-12T05:00:06.092Z,12.23
2023-05-12T05:02:37.421Z,8.73
2023-05-12T05:05:06.963Z,6.85
2023-05-12T05:07:35.835Z,10.60
2023-05-12T05:10:04.343Z,10.40
2023-05-12T05:12:35.026Z,12.02
2023-05-12T05:15:03.351Z,4.78
2023-05-12T05:17:35.166Z,8.38
2023-05-12T05:20:09.746Z,11.32
2023-05-12T05:22:40.941Z,12.18
2023-05-12T05:25:10.507Z,10.27
2023-05-12T05:27:40.314Z,7.45
2023-05-12T05:30:09.927Z,11.55
2023-05-12T05:32:40.531Z,9.70
2023-05-12T05:35:09.944Z,12.70
2023-05-12T05:37:42.689Z,10.65
2023-05-12T05:40:11.536Z,8.60
2023-05-12T05:42:41.251Z,6.35
2023-05-12T05:45:10.648Z,8.07
2023-05-12T05:47:40.065Z,7.47
2023-05-12T05:50:10.412Z,10.65
2023-05-12T05:52:41.075Z,16.17
2023-05-12T05:55:10.272Z,8.13
2023-05-12T05:57:38.514Z,6.55
2023-05-12T06:00:10.007Z,11.07
2023-05-12T06:02:51.520Z,11.00
2023-05-12T06:05:22.376Z,9.35
2023-05-12T06:07:52.947Z,6.15
2023-05-12T06:10:21.814Z,8.57
2023-05-12T06:12:50.538Z,18.00
2023-05-12T06:15:20.823Z,15.43
2023-05-12T06:17:51.315Z,7.20
2023-05-12T06:20:20.152Z,14.45
2023-05-12T06:22:48.646Z,17.80
2023-05-12T06:25:18.632Z,14.70
2023-05-12T06:27:47.320Z,7.57
2023-05-12T06:30:16.543Z,8.27
2023-05-12T06:32:46.551Z,10.18
2023-05-12T06:35:14.915Z,9.30
2023-05-12T06:37:44.860Z,15.93
2023-05-12T06:40:16.649Z,12.15
2023-05-12T06:42:45.427Z,18.33
2023-05-12T06:45:21.626Z,16.63
2023-05-12T06:47:51.839Z,6.78
2023-05-12T06:50:20.515Z,5.25
2023-05-12T06:52:53.629Z,13.45
2023-05-12T06:55:22.750Z,18.52
2023-05-12T06:57:55.598Z,16.42
2023-05-12T07:00:24.708Z,5.15
2023-05-12T07:02:54.575Z,7.45
2023-05-12T07:05:23.259Z,16.75
2023-05-12T07:07:51.931Z,8.05
2023-05-12T07:10:21.961Z,11.15
2023-05-12T07:12:50.338Z,12.63
2023-05-12T07:15:18.994Z,13.35
2023-05-12T07:17:47.748Z,11.02
2023-05-12T07:20:18.046Z,10.23
2023-05-12T07:22:46.394Z,13.02
2023-05-12T07:25:16.065Z,15.40
2023-05-12T07:27:44.991Z,8.80
2023-05-12T07:30:13.754Z,9.80
2023-05-12T07:32:42.987Z,13.10
2023-05-12T07:35:11.717Z,10.13
2023-05-12T07:37:42.098Z,9.48
2023-05-12T07:40:11.027Z,17.67
2023-05-12T07:42:39.224Z,13.38
2023-05-12T07:45:08.451Z,13.48
2023-05-12T07:47:36.815Z,14.32
2023-05-12T07:50:05.446Z,14.43
2023-05-12T07:52:34.579Z,15.60
2023-05-12T07:55:04.423Z,9.77
2023-05-12T07:57:32.737Z,9.82
2023-05-12T08:00:00.988Z,18.13
2023-05-12T08:02:34.344Z,8.45
2023-05-12T08:05:02.868Z,12.00
2023-05-12T08:07:33.361Z,17.33
2023-05-12T08:10:01.712Z,10.05
2023-05-12T08:12:35.145Z,13.27
2023-05-12T08:15:03.561Z,9.90
2023-05-12T08:17:35.071Z,10.77
2023-05-12T08:20:05.264Z,6.68
2023-05-12T08:22:37.119Z,17.00
2023-05-12T08:25:06.147Z,6.38
2023-05-12T08:27:36.443Z,23.77
2023-05-12T08:30:05.566Z,19.90
2023-05-12T08:32:36.024Z,10.82
2023-05-12T08:35:04.766Z,8.85
2023-05-12T08:37:34.921Z,5.88
2023-05-12T08:40:04.696Z,8.57
2023-05-12T08:42:40.796Z,9.25
2023-05-12T08:45:11.992Z,17.90
2023-05-12T08:47:42.875Z,13.40
2023-05-12T08:50:12.866Z,13.43
2023-05-12T08:52:41.509Z,17.00
2023-05-12T08:55:10.858Z,15.50
2023-05-12T08:57:45.518Z,21.23
2023-05-12T09:00:15.361Z,8.10
2023-05-12T09:02:51.954Z,7.22
2023-05-12T09:05:23.009Z,8.32
2023-05-12T09:07:56.336Z,8.82
2023-05-12T09:10:35.261Z,10.18
2023-05-12T09:13:14.762Z,10.65
2023-05-12T09:18:14.018Z,11.50
2023-05-12T09:20:42.286Z,11.25
2023-05-12T09:23:18.533Z,13.02
2023-05-12T09:25:48.217Z,9.45
2023-05-12T09:28:18.792Z,10.35
2023-05-12T09:30:47.232Z,11.57
2023-05-12T09:33:15.969Z,4.85
2023-05-12T09:35:45.654Z,5.45
2023-05-12T09:38:15.305Z,10.65
2023-05-12T09:40:44.259Z,13.68
2023-05-12T09:43:15.370Z,11.07
2023-05-12T09:45:47.696Z,13.00
2023-05-12T09:48:16.596Z,7.03
2023-05-12T09:50:47.728Z,18.73
2023-05-12T09:53:19.163Z,8.52
2023-05-12T09:55:49.303Z,9.43
2023-05-12T09:58:18.765Z,19.88
2023-05-12T10:03:23.853Z,7.10
2023-05-12T10:05:55.943Z,8.27
2023-05-12T10:08:28.413Z,8.57
2023-05-12T10:11:00.885Z,12.05
2023-05-12T10:13:29.785Z,8.43
2023-05-12T10:16:01.165Z,7.53
2023-05-12T10:18:30.604Z,22.17
2023-05-12T10:21:00.670Z,10.48
2023-05-12T10:23:29.453Z,8.45
2023-05-12T10:26:01.959Z,11.38
2023-05-12T10:28:30.649Z,17.75
2023-05-12T10:31:01.045Z,5.32
2023-05-12T10:33:29.433Z,5.25
2023-05-12T10:35:57.904Z,7.10
2023-05-12T10:38:26.818Z,14.57
2023-05-12T10:40:58.230Z,10.52
2023-05-12T10:43:29.651Z,23.42
2023-05-12T10:46:17.987Z,25.35
2023-05-12T10:48:59.485Z,15.50
2023-05-12T10:51:29.929Z,12.80
2023-05-12T10:53:59.555Z,5.47
2023-05-12T10:56:29.461Z,13.13
2023-05-12T10:59:19.052Z,7.90
2023-05-12T11:02:04.970Z,5.57
2023-05-12T11:04:40.893Z,9.85
2023-05-12T11:07:10.540Z,8.60
2023-05-12T11:09:50.647Z,8.52
2023-05-12T11:12:26.598Z,17.38
2023-05-12T11:14:55.081Z,5.50
2023-05-12T11:17:24.760Z,7.22
2023-05-12T11:19:53.633Z,20.85
2023-05-12T11:22:23.677Z,5.78
2023-05-12T11:24:53.348Z,4.55
2023-05-12T11:27:24.056Z,4.70
2023-05-12T11:29:59.853Z,8.60
2023-05-12T11:32:30.159Z,8.93
2023-05-12T11:35:09.920Z,14.73
2023-05-12T11:37:39.300Z,8.73
2023-05-12T11:40:18.070Z,4.80
2023-05-12T11:42:49.169Z,19.75
2023-05-12T11:45:24.796Z,13.00
2023-05-12T11:48:07.228Z,8.82
2023-05-12T11:50:39.059Z,13.00
2023-05-12T11:53:12.362Z,13.18
2023-05-12T11:55:49.175Z,11.43
2023-05-12T11:58:21.898Z,24.92
2023-05-12T12:00:50.749Z,3.78
2023-05-12T12:03:21.153Z,22.23
2023-05-12T12:06:00.008Z,12.88
2023-05-12T12:08:28.763Z,14.45
2023-05-12T12:10:57.132Z,8.23
2023-05-12T12:13:27.288Z,13.80
2023-05-12T12:15:56.147Z,16.55
2023-05-12T12:18:28.812Z,11.80
2023-05-12T12:20:57.336Z,5.40
2023-05-12T12:23:25.981Z,27.40
2023-05-12T12:25:54.266Z,18.50
2023-05-12T12:28:22.799Z,7.07
2023-05-12T12:30:51.323Z,9.52
2023-05-12T12:33:20.672Z,14.23
2023-05-12T12:35:50.777Z,27.55
2023-05-12T12:38:19.100Z,19.13
2023-05-12T12:40:47.688Z,33.47
2023-05-12T12:43:16.101Z,6.85
2023-05-12T12:45:44.524Z,11.93
2023-05-12T12:48:12.925Z,13.35
2023-05-12T12:50:41.609Z,8.23
2023-05-12T12:53:11.323Z,6.60
2023-05-12T12:55:39.627Z,13.05
2023-05-12T12:58:07.860Z,8.35
2023-05-12T13:00:36.200Z,5.47
2023-05-12T13:03:05.021Z,16.65
2023-05-12T13:05:33.362Z,15.20
2023-05-12T13:08:01.830Z,6.85
2023-05-12T13:10:31.755Z,22.55
2023-05-12T13:13:00.871Z,8.77
2023-05-12T13:15:29.573Z,5.53
2023-05-12T13:17:58.299Z,6.65
2023-05-12T13:20:26.960Z,11.50
2023-05-12T13:22:55.236Z,13.00
2023-05-12T13:25:23.755Z,10.73
2023-05-12T13:27:53.639Z,8.30
2023-05-12T13:30:25.022Z,10.85
2023-05-12T13:32:53.382Z,9.80
2023-05-12T13:35:22.985Z,4.22
2023-05-12T13:37:51.537Z,11.38
2023-05-12T13:40:19.797Z,11.93
2023-05-12T13:42:49.055Z,8.70
2023-05-12T13:45:19.865Z,14.70
2023-05-12T13:47:48.980Z,7.90
2023-05-12T13:50:17.466Z,13.50
2023-05-12T13:52:47.573Z,6.22
2023-05-12T13:55:20.967Z,7.40
2023-05-12T13:57:50.386Z,12.55
2023-05-12T14:00:20.979Z,11.27
2023-05-12T14:02:50.282Z,12.82
2023-05-12T14:05:19.121Z,8.05
2023-05-12T14:07:47.626Z,29.60
2023-05-12T14:10:16.081Z,18.50
2023-05-12T14:12:45.261Z,14.43
2023-05-12T14:15:28.874Z,7.38
2023-05-12T14:18:03.312Z,11.98
2023-05-12T14:20:32.108Z,17.40
2023-05-12T14:23:00.465Z,9.07
2023-05-12T14:25:30.790Z,9.52
2023-05-12T14:27:59.926Z,21.65
2023-05-12T14:30:28.449Z,10.82
2023-05-12T14:32:57.117Z,36.08
2023-05-12T14:35:28.732Z,12.88
2023-05-12T14:37:57.900Z,16.67
2023-05-12T14:40:27.222Z,31.83
2023-05-12T14:42:56.062Z,15.45
2023-05-12T14:45:25.843Z,11.82
2023-05-12T14:47:54.609Z,11.88
2023-05-12T14:50:23.595Z,4.07
2023-05-12T14:52:53.363Z,11.85
2023-05-12T14:55:21.951Z,21.20
2023-05-12T14:57:50.637Z,9.85
2023-05-12T15:00:21.261Z,6.40
2023-05-12T15:02:49.792Z,8.77
2023-05-12T15:05:19.763Z,14.05
2023-05-12T15:07:48.329Z,14.13
2023-05-12T15:10:17.908Z,11.73
2023-05-12T15:12:48.000Z,18.50
2023-05-12T15:15:17.172Z,25.65
2023-05-12T15:17:45.759Z,14.57
2023-05-12T15:20:14.152Z,13.80
2023-05-12T15:22:42.388Z,17.73
2023-05-12T15:25:11.734Z,7.70
2023-05-12T15:27:41.962Z,9.88
2023-05-12T15:30:12.313Z,7.93
2023-05-12T15:32:41.677Z,15.10
2023-05-12T15:35:11.241Z,7.28
2023-05-12T15:37:40.593Z,11.15
2023-05-12T15:40:10.718Z,30.73
2023-05-12T15:42:38.928Z,16.85
2023-05-12T15:45:09.819Z,8.15
2023-05-12T15:47:38.293Z,9.30
2023-05-12T15:50:07.704Z,10.13
2023-05-12T15:52:36.023Z,6.38
2023-05-12T15:55:04.587Z,12.63
2023-05-12T15:57:33.500Z,10.00
2023-05-12T16:00:02.235Z,6.22
2023-05-12T16:02:43.064Z,11.63
2023-05-12T16:05:12.318Z,15.50
2023-05-12T16:07:40.619Z,12.82
2023-05-12T16:10:10.177Z,10.40
2023-05-12T16:12:38.520Z,10.43
2023-05-12T16:15:07.688Z,10.68
2023-05-12T16:17:36.586Z,8.48
2023-05-12T16:20:07.912Z,7.90
2023-05-12T16:22:36.472Z,5.32
2023-05-12T16:25:05.115Z,6.68
2023-05-12T16:27:35.721Z,13.05
2023-05-12T16:30:04.072Z,18.27
2023-05-12T16:32:33.875Z,13.57
2023-05-12T16:35:02.368Z,8.20
2023-05-12T16:37:33.838Z,10.98
2023-05-12T16:40:02.441Z,12.10
2023-05-12T16:42:33.216Z,18.90
2023-05-12T16:45:01.836Z,14.23
2023-05-12T16:47:34.155Z,12.55
2023-05-12T16:50:02.811Z,10.70
2023-05-12T16:52:34.725Z,11.32
2023-05-12T16:55:04.052Z,13.93
2023-05-12T16:57:33.034Z,12.00
2023-05-12T17:00:03.339Z,17.15
2023-05-12T17:02:36.463Z,30.05
2023-05-12T17:05:05.454Z,11.88
2023-05-12T17:07:36.210Z,18.85
2023-05-12T17:10:04.753Z,19.67
2023-05-12T17:12:34.455Z,11.57
2023-05-12T17:15:08.178Z,29.70
2023-05-12T17:17:37.504Z,13.57
2023-05-12T17:20:07.550Z,26.88
2023-05-12T17:22:41.645Z,9.45
2023-05-12T17:25:10.313Z,20.40
2023-05-12T17:27:38.636Z,21.88
2023-05-12T17:30:09.273Z,26.48
2023-05-12T17:32:38.047Z,13.13
2023-05-12T17:35:08.086Z,10.60
2023-05-12T17:37:38.484Z,45.70
2023-05-12T17:40:08.382Z,22.95
2023-05-12T17:42:37.003Z,19.52
2023-05-12T17:45:06.129Z,22.80
2023-05-12T17:47:34.710Z,27.65
2023-05-12T17:50:03.041Z,24.58
2023-05-12T17:52:32.659Z,17.33
2023-05-12T17:55:02.369Z,11.38
2023-05-12T17:57:32.244Z,29.85
2023-05-12T18:00:00.585Z,17.95
2023-05-12T18:02:29.061Z,21.73
2023-05-12T18:04:57.415Z,20.52
2023-05-12T18:07:25.664Z,22.20
2023-05-12T18:09:54.021Z,13.68
2023-05-12T18:12:23.718Z,21.27
2023-05-12T18:14:52.470Z,27.08
2023-05-12T18:17:20.844Z,18.80
2023-05-12T18:19:49.077Z,26.00
2023-05-12T18:22:18.416Z,14.10
2023-05-12T18:24:47.024Z,14.70
2023-05-12T18:27:15.473Z,17.65
2023-05-12T18:29:45.206Z,15.45
2023-05-12T18:32:14.064Z,23.33
2023-05-12T18:34:44.176Z,23.48
2023-05-12T18:37:15.613Z,10.60
2023-05-12T18:39:44.259Z,13.10
2023-05-12T18:42:12.697Z,19.45
2023-05-12T18:44:42.354Z,12.45
2023-05-12T18:47:14.458Z,18.45
2023-05-12T18:49:43.002Z,18.02
2023-05-12T18:52:11.585Z,36.53
2023-05-12T18:54:40.252Z,98.85
2023-05-12T18:57:08.844Z,81.88
2023-05-12T18:59:37.187Z,103.72
2023-05-12T19:02:05.954Z,57.33
2023-05-12T19:04:35.792Z,31.55
2023-05-12T19:07:04.301Z,20.67
2023-05-12T19:09:32.654Z,36.33
2023-05-12T19:12:01.045Z,49.53
2023-05-12T19:14:29.439Z,41.38
2023-05-12T19:16:58.630Z,43.67
2023-05-12T19:19:27.413Z,38.40
2023-05-12T19:21:57.177Z,41.40
2023-05-12T19:24:26.893Z,45.17
2023-05-12T19:26:55.579Z,43.60
2023-05-12T19:29:24.581Z,55.25
2023-05-12T19:31:54.169Z,59.35
2023-05-12T19:34:22.656Z,74.55
2023-05-12T19:36:53.869Z,104.13
2023-05-12T19:39:23.731Z,60.10
2023-05-12T19:41:52.342Z,42.25
2023-05-12T19:44:20.715Z,46.20
2023-05-12T19:46:49.185Z,34.33
2023-05-12T19:49:17.484Z,29.80
2023-05-12T19:51:45.824Z,26.67
2023-05-12T19:54:14.217Z,32.20
2023-05-12T19:56:44.001Z,25.35
2023-05-12T19:59:12.307Z,24.85
2023-05-12T20:01:41.563Z,25.85
2023-05-12T20:04:10.229Z,36.38
2023-05-12T20:06:38.481Z,24.90
2023-05-12T20:09:07.047Z,23.83
2023-05-12T20:11:35.420Z,17.05
2023-05-12T20:14:05.105Z,21.98
2023-05-12T20:16:33.466Z,22.20
2023-05-12T20:19:03.076Z,21.85
2023-05-12T20:21:32.427Z,21.42
2023-05-12T20:24:00.715Z,15.30
2023-05-12T20:26:30.636Z,15.30
2023-05-12T20:28:59.621Z,18.33
2023-05-12T20:31:35.572Z,17.13
2023-05-12T20:34:03.908Z,19.77
2023-05-12T20:36:35.023Z,14.98
2023-05-12T20:39:05.556Z,20.63
2023-05-12T20:41:33.818Z,21.83
2023-05-12T20:44:04.825Z,21.17
2023-05-12T20:46:39.901Z,32.10
2023-05-12T20:49:11.276Z,22.73
2023-05-12T20:51:39.809Z,22.83
2023-05-12T20:54:10.990Z,12.30
2023-05-12T20:56:45.125Z,12.30
2023-05-12T20:59:16.379Z,15.25
2023-05-12T21:01:49.578Z,23.35
2023-05-12T21:04:21.124Z,13.10
2023-05-12T21:06:53.730Z,12.25
2023-05-12T21:09:26.939Z,12.77
2023-05-12T21:11:59.141Z,17.83
2023-05-12T21:14:29.607Z,12.65
2023-05-12T21:17:04.960Z,15.95
2023-05-12T21:19:36.599Z,13.98
2023-05-12T21:22:08.448Z,12.52
2023-05-12T21:24:37.563Z,10.32
2023-05-12T21:27:08.098Z,13.52
2023-05-12T21:29:38.950Z,10.10
2023-05-12T21:32:09.347Z,8.13
2023-05-12T21:34:39.931Z,7.47
2023-05-12T21:37:10.938Z,15.05
2023-05-12T21:39:41.341Z,15.18
2023-05-12T21:42:09.587Z,11.90
2023-05-12T21:44:40.756Z,10.52
2023-05-12T21:47:12.379Z,9.10
2023-05-12T21:49:40.744Z,9.63
2023-05-12T21:52:11.302Z,10.00
2023-05-12T21:54:39.742Z,6.38
2023-05-12T21:57:11.579Z,10.13
2023-05-12T21:59:44.123Z,10.57
2023-05-12T22:02:13.901Z,9.48
2023-05-12T22:04:44.883Z,12.15
2023-05-12T22:07:15.996Z,7.95
2023-05-12T22:09:44.776Z,6.68
2023-05-12T22:12:18.503Z,9.98
2023-05-12T22:14:46.990Z,7.00
2023-05-12T22:17:16.926Z,15.48
2023-05-12T22:19:45.253Z,8.77
2023-05-12T22:22:13.606Z,12.40
2023-05-12T22:24:42.241Z,8.65
2023-05-12T22:27:10.886Z,11.48
2023-05-12T22:29:39.452Z,9.68
2023-05-12T22:32:08.491Z,19.17
2023-05-12T22:34:38.214Z,17.90
2023-05-12T22:37:07.014Z,9.82
2023-05-12T22:39:35.467Z,9.73
2023-05-12T22:42:04.312Z,9.77
2023-05-12T22:44:32.940Z,12.15
2023-05-12T22:47:01.203Z,14.23
2023-05-12T22:49:29.567Z,12.20
2023-05-12T22:52:00.431Z,7.78
2023-05-12T22:54:28.739Z,10.02
2023-05-12T22:56:57.080Z,13.13
2023-05-12T22:59:25.499Z,6.97
2023-05-12T23:01:53.768Z,7.78
2023-05-12T23:04:22.176Z,8.38
2023-05-12T23:06:50.492Z,5.80
2023-05-12T23:09:20.106Z,8.07
2023-05-12T23:11:48.351Z,10.02
2023-05-12T23:14:16.547Z,8.20
2023-05-12T23:16:44.802Z,8.73
2023-05-12T23:19:13.229Z,7.05
2023-05-12T23:21:41.619Z,15.20
2023-05-12T23:24:09.993Z,11.95
2023-05-12T23:26:40.452Z,14.07
2023-05-12T23:29:09.144Z,11.32
2023-05-12T23:31:37.392Z,10.88
2023-05-12T23:34:05.804Z,7.45
2023-05-12T23:36:34.002Z,11.05
2023-05-12T23:39:02.302Z,11.60
2023-05-12T23:41:31.766Z,10.07
2023-05-12T23:44:01.597Z,13.23
2023-05-12T23:46:29.859Z,13.50
2023-05-12T23:48:58.168Z,8.20
2023-05-12T23:51:26.561Z,10.85
2023-05-12T23:53:54.828Z,8.60
2023-05-12T23:56:23.473Z,8.77
2023-05-12T23:58:52.008Z,9.32
